sensor_id;sensor_type;location;lat;lon;timestamp;pressure;altitude;pressure_sealevel;temperature;humidity
79203;BME280;68630;42.748;23.278;2024-03-08T00:01:11;95565.36;;;4.91;76.00
79203;BME280;68630;42.748;23.278;2024-03-08T00:03:40;95569.80;;;4.90;75.67
79203;BME280;68630;42.748;23.278;2024-03-08T00:06:13;95571.66;;;4.81;76.12
79203;BME280;68630;42.748;23.278;2024-03-08T00:08:45;95573.19;;;4.85;75.96
79203;BME280;68630;42.748;23.278;2024-03-08T00:11:18;95574.13;;;4.84;76.46
79203;BME280;68630;42.748;23.278;2024-03-08T00:13:47;95582.97;;;4.76;76.82
79203;BME280;68630;42.748;23.278;2024-03-08T00:16:19;95569.42;;;4.75;78.08
79203;BME280;68630;42.748;23.278;2024-03-08T00:18:48;95574.88;;;4.64;78.99
79203;BME280;68630;42.748;23.278;2024-03-08T00:21:17;95572.23;;;4.72;78.95
79203;BME280;68630;42.748;23.278;2024-03-08T00:23:45;95569.03;;;4.66;79.62
79203;BME280;68630;42.748;23.278;2024-03-08T00:26:16;95574.58;;;4.62;79.62
79203;BME280;68630;42.748;23.278;2024-03-08T00:28:46;95571.20;;;4.53;80.18
79203;BME280;68630;42.748;23.278;2024-03-08T00:31:20;95568.83;;;4.55;80.30
79203;BME280;68630;42.748;23.278;2024-03-08T00:33:53;95569.78;;;4.54;80.47
79203;BME280;68630;42.748;23.278;2024-03-08T00:36:31;95571.94;;;4.47;80.72
79203;BME280;68630;42.748;23.278;2024-03-08T00:39:03;95566.84;;;4.44;80.70
79203;BME280;68630;42.748;23.278;2024-03-08T00:41:35;95574.67;;;4.46;80.22
79203;BME280;68630;42.748;23.278;2024-03-08T00:46:44;95566.76;;;4.46;80.26
79203;BME280;68630;42.748;23.278;2024-03-08T00:49:19;95560.91;;;4.41;80.51
79203;BME280;68630;42.748;23.278;2024-03-08T00:51:48;95562.50;;;4.36;80.64
79203;BME280;68630;42.748;23.278;2024-03-08T00:54:17;95563.16;;;4.33;80.75
79203;BME280;68630;42.748;23.278;2024-03-08T00:56:56;95553.66;;;4.37;80.54
79203;BME280;68630;42.748;23.278;2024-03-08T00:59:42;95567.59;;;4.32;79.76
79203;BME280;68630;42.748;23.278;2024-03-08T01:02:16;95552.05;;;4.42;79.02
79203;BME280;68630;42.748;23.278;2024-03-08T01:04:51;95552.52;;;4.48;79.28
79203;BME280;68630;42.748;23.278;2024-03-08T01:07:20;95558.37;;;4.46;77.85
79203;BME280;68630;42.748;23.278;2024-03-08T01:09:56;95551.87;;;4.52;77.93
79203;BME280;68630;42.748;23.278;2024-03-08T01:12:28;95537.76;;;4.53;77.80
79203;BME280;68630;42.748;23.278;2024-03-08T01:15:01;95539.34;;;4.56;77.78
79203;BME280;68630;42.748;23.278;2024-03-08T01:17:30;95534.19;;;4.54;77.43
79203;BME280;68630;42.748;23.278;2024-03-08T01:19:59;95531.25;;;4.66;76.91
79203;BME280;68630;42.748;23.278;2024-03-08T01:22:34;95529.84;;;4.67;77.29
79203;BME280;68630;42.748;23.278;2024-03-08T01:25:07;95540.13;;;4.65;76.79
79203;BME280;68630;42.748;23.278;2024-03-08T01:27:38;95538.89;;;4.71;76.60
79203;BME280;68630;42.748;23.278;2024-03-08T01:30:07;95531.27;;;4.73;76.72
79203;BME280;68630;42.748;23.278;2024-03-08T01:32:36;95531.62;;;4.74;76.34
79203;BME280;68630;42.748;23.278;2024-03-08T01:35:05;95534.75;;;4.74;76.36
79203;BME280;68630;42.748;23.278;2024-03-08T01:40:58;95528.73;;;4.64;76.18
79203;BME280;68630;42.748;23.278;2024-03-08T01:43:28;95525.70;;;4.63;75.74
79203;BME280;68630;42.748;23.278;2024-03-08T01:49:21;95515.52;;;4.57;75.47
79203;BME280;68630;42.748;23.278;2024-03-08T01:51:56;95523.52;;;4.56;76.29
79203;BME280;68630;42.748;23.278;2024-03-08T01:54:26;95522.89;;;4.66;75.96
79203;BME280;68630;42.748;23.278;2024-03-08T01:56:53;95515.15;;;4.71;75.52
79203;BME280;68630;42.748;23.278;2024-03-08T01:59:22;95509.21;;;4.74;75.67
79203;BME280;68630;42.748;23.278;2024-03-08T02:01:51;95505.05;;;4.84;75.29
79203;BME280;68630;42.748;23.278;2024-03-08T02:04:18;95506.38;;;4.84;75.75
79203;BME280;68630;42.748;23.278;2024-03-08T02:06:47;95509.13;;;4.90;74.51
79203;BME280;68630;42.748;23.278;2024-03-08T02:09:19;95509.00;;;4.92;74.09
79203;BME280;68630;42.748;23.278;2024-03-08T02:11:46;95514.76;;;4.91;74.59
79203;BME280;68630;42.748;23.278;2024-03-08T02:14:17;95513.64;;;4.95;74.21
79203;BME280;68630;42.748;23.278;2024-03-08T02:16:46;95510.23;;;4.86;74.06
79203;BME280;68630;42.748;23.278;2024-03-08T02:19:17;95509.87;;;4.92;74.16
79203;BME280;68630;42.748;23.278;2024-03-08T02:21:47;95510.53;;;4.88;74.22
79203;BME280;68630;42.748;23.278;2024-03-08T02:24:18;95500.98;;;4.93;73.56
79203;BME280;68630;42.748;23.278;2024-03-08T02:26:45;95504.50;;;4.94;73.95
79203;BME280;68630;42.748;23.278;2024-03-08T02:29:13;95513.81;;;4.99;73.49
79203;BME280;68630;42.748;23.278;2024-03-08T02:31:45;95505.05;;;4.99;73.66
79203;BME280;68630;42.748;23.278;2024-03-08T02:34:15;95514.00;;;4.96;74.86
79203;BME280;68630;42.748;23.278;2024-03-08T02:36:45;95508.44;;;5.01;74.18
79203;BME280;68630;42.748;23.278;2024-03-08T02:39:15;95515.31;;;4.96;74.53
79203;BME280;68630;42.748;23.278;2024-03-08T02:41:42;95511.36;;;4.96;74.31
79203;BME280;68630;42.748;23.278;2024-03-08T02:44:10;95520.44;;;4.85;74.98
79203;BME280;68630;42.748;23.278;2024-03-08T02:46:39;95513.83;;;4.92;74.88
79203;BME280;68630;42.748;23.278;2024-03-08T02:49:07;95521.73;;;4.92;74.92
79203;BME280;68630;42.748;23.278;2024-03-08T02:51:35;95521.91;;;4.96;75.08
79203;BME280;68630;42.748;23.278;2024-03-08T02:54:04;95520.69;;;4.95;74.95
79203;BME280;68630;42.748;23.278;2024-03-08T02:56:40;95520.22;;;4.88;75.68
79203;BME280;68630;42.748;23.278;2024-03-08T02:59:13;95527.66;;;4.81;75.96
79203;BME280;68630;42.748;23.278;2024-03-08T03:01:41;95513.64;;;4.81;76.29
79203;BME280;68630;42.748;23.278;2024-03-08T03:04:10;95523.25;;;4.82;76.19
79203;BME280;68630;42.748;23.278;2024-03-08T03:06:38;95520.80;;;4.79;75.67
79203;BME280;68630;42.748;23.278;2024-03-08T03:09:07;95519.31;;;4.75;75.15
79203;BME280;68630;42.748;23.278;2024-03-08T03:11:43;95529.66;;;4.63;75.37
79203;BME280;68630;42.748;23.278;2024-03-08T03:14:10;95527.29;;;4.66;74.57
79203;BME280;68630;42.748;23.278;2024-03-08T03:16:40;95527.20;;;4.60;74.18
79203;BME280;68630;42.748;23.278;2024-03-08T03:19:09;95532.58;;;4.52;74.31
79203;BME280;68630;42.748;23.278;2024-03-08T03:21:37;95535.30;;;4.50;73.88
79203;BME280;68630;42.748;23.278;2024-03-08T03:24:07;95539.16;;;4.52;73.73
79203;BME280;68630;42.748;23.278;2024-03-08T03:26:38;95540.78;;;4.54;73.76
79203;BME280;68630;42.748;23.278;2024-03-08T03:29:09;95537.94;;;4.50;73.40
79203;BME280;68630;42.748;23.278;2024-03-08T03:31:37;95542.28;;;4.51;72.33
79203;BME280;68630;42.748;23.278;2024-03-08T03:34:07;95551.30;;;4.47;71.34
79203;BME280;68630;42.748;23.278;2024-03-08T03:36:35;95544.92;;;4.51;70.81
79203;BME280;68630;42.748;23.278;2024-03-08T03:39:08;95548.78;;;4.53;70.39
79203;BME280;68630;42.748;23.278;2024-03-08T03:44:19;95554.77;;;4.40;71.09
79203;BME280;68630;42.748;23.278;2024-03-08T03:46:48;95557.48;;;4.17;72.27
79203;BME280;68630;42.748;23.278;2024-03-08T03:49:18;95564.41;;;4.11;72.21
79203;BME280;68630;42.748;23.278;2024-03-08T03:51:47;95471.50;;;3.48;72.97
79203;BME280;68630;42.748;23.278;2024-03-08T03:54:19;95569.00;;;4.00;73.32
79203;BME280;68630;42.748;23.278;2024-03-08T03:56:53;95575.24;;;4.06;72.76
79203;BME280;68630;42.748;23.278;2024-03-08T03:59:25;95569.67;;;4.04;72.88
79203;BME280;68630;42.748;23.278;2024-03-08T04:01:54;95570.42;;;4.06;72.26
79203;BME280;68630;42.748;23.278;2024-03-08T04:04:40;95570.24;;;4.09;71.73
79203;BME280;68630;42.748;23.278;2024-03-08T04:07:11;95582.42;;;3.96;72.60
79203;BME280;68630;42.748;23.278;2024-03-08T04:09:46;95586.52;;;4.01;72.21
79203;BME280;68630;42.748;23.278;2024-03-08T04:12:26;95586.58;;;3.92;72.59
79203;BME280;68630;42.748;23.278;2024-03-08T04:15:01;95586.61;;;3.84;73.24
79203;BME280;68630;42.748;23.278;2024-03-08T04:17:30;95585.84;;;3.98;72.68
79203;BME280;68630;42.748;23.278;2024-03-08T04:20:09;95590.79;;;3.88;72.80
79203;BME280;68630;42.748;23.278;2024-03-08T04:22:49;95586.92;;;3.86;73.47
79203;BME280;68630;42.748;23.278;2024-03-08T04:25:20;95584.20;;;3.88;73.65
79203;BME280;68630;42.748;23.278;2024-03-08T04:27:55;95586.38;;;3.96;74.09
79203;BME280;68630;42.748;23.278;2024-03-08T04:30:28;95589.02;;;3.96;74.22
79203;BME280;68630;42.748;23.278;2024-03-08T04:33:05;95600.09;;;3.86;74.63
79203;BME280;68630;42.748;23.278;2024-03-08T04:35:40;95597.06;;;3.85;75.16
79203;BME280;68630;42.748;23.278;2024-03-08T04:38:22;95600.09;;;3.86;75.26
79203;BME280;68630;42.748;23.278;2024-03-08T04:40:55;95607.26;;;3.52;75.69
79203;BME280;68630;42.748;23.278;2024-03-08T04:43:26;95615.61;;;3.68;75.84
79203;BME280;68630;42.748;23.278;2024-03-08T04:46:24;95616.81;;;3.62;76.40
79203;BME280;68630;42.748;23.278;2024-03-08T04:48:59;95611.23;;;3.60;76.70
79203;BME280;68630;42.748;23.278;2024-03-08T04:51:31;95613.94;;;3.67;76.43
79203;BME280;68630;42.748;23.278;2024-03-08T04:54:01;95621.13;;;3.63;76.42
79203;BME280;68630;42.748;23.278;2024-03-08T04:56:39;95612.39;;;3.63;76.38
79203;BME280;68630;42.748;23.278;2024-03-08T04:59:17;95626.33;;;3.49;76.86
79203;BME280;68630;42.748;23.278;2024-03-08T05:02:06;95621.17;;;3.54;77.06
79203;BME280;68630;42.748;23.278;2024-03-08T05:04:50;95624.16;;;3.64;76.48
79203;BME280;68630;42.748;23.278;2024-03-08T05:07:19;95629.42;;;3.64;77.13
79203;BME280;68630;42.748;23.278;2024-03-08T05:09:57;95623.16;;;3.67;77.23
79203;BME280;68630;42.748;23.278;2024-03-08T05:12:50;95628.05;;;3.73;76.65
79203;BME280;68630;42.748;23.278;2024-03-08T05:15:42;95632.31;;;3.75;76.65
79203;BME280;68630;42.748;23.278;2024-03-08T05:18:26;95639.63;;;3.70;76.52
79203;BME280;68630;42.748;23.278;2024-03-08T05:28:46;95653.84;;;3.91;76.39
79203;BME280;68630;42.748;23.278;2024-03-08T05:31:21;95656.66;;;3.72;77.20
79203;BME280;68630;42.748;23.278;2024-03-08T05:33:57;95660.49;;;3.73;77.22
79203;BME280;68630;42.748;23.278;2024-03-08T05:36:27;95669.24;;;3.90;76.71
79203;BME280;68630;42.748;23.278;2024-03-08T05:39:01;95663.56;;;3.98;76.27
79203;BME280;68630;42.748;23.278;2024-03-08T05:41:37;95666.78;;;4.03;75.70
79203;BME280;68630;42.748;23.278;2024-03-08T05:44:04;95676.48;;;4.09;75.93
79203;BME280;68630;42.748;23.278;2024-03-08T05:46:32;95678.58;;;4.11;75.96
79203;BME280;68630;42.748;23.278;2024-03-08T05:49:06;95674.84;;;4.23;75.26
79203;BME280;68630;42.748;23.278;2024-03-08T05:54:23;95690.51;;;4.33;75.42
79203;BME280;68630;42.748;23.278;2024-03-08T05:57:00;95694.79;;;4.43;74.10
79203;BME280;68630;42.748;23.278;2024-03-08T05:59:29;95694.13;;;4.39;75.31
79203;BME280;68630;42.748;23.278;2024-03-08T06:01:59;95699.43;;;4.54;74.55
79203;BME280;68630;42.748;23.278;2024-03-08T06:04:32;95698.55;;;4.39;74.88
79203;BME280;68630;42.748;23.278;2024-03-08T06:07:08;95706.66;;;4.43;74.72
79203;BME280;68630;42.748;23.278;2024-03-08T06:09:39;95697.82;;;4.44;73.90
79203;BME280;68630;42.748;23.278;2024-03-08T06:12:08;95706.60;;;4.59;73.76
79203;BME280;68630;42.748;23.278;2024-03-08T06:14:37;95698.69;;;4.59;73.96
79203;BME280;68630;42.748;23.278;2024-03-08T06:17:05;95705.75;;;4.51;73.95
79203;BME280;68630;42.748;23.278;2024-03-08T06:19:34;95704.36;;;4.60;73.40
79203;BME280;68630;42.748;23.278;2024-03-08T06:22:02;95709.39;;;4.72;73.49
79203;BME280;68630;42.748;23.278;2024-03-08T06:24:33;95708.73;;;4.75;74.11
79203;BME280;68630;42.748;23.278;2024-03-08T06:27:02;95720.27;;;4.88;72.95
79203;BME280;68630;42.748;23.278;2024-03-08T06:29:38;95712.88;;;4.86;73.20
79203;BME280;68630;42.748;23.278;2024-03-08T06:32:23;95713.28;;;4.95;72.30
79203;BME280;68630;42.748;23.278;2024-03-08T06:34:52;95714.51;;;4.89;73.32
79203;BME280;68630;42.748;23.278;2024-03-08T06:37:29;95716.81;;;4.72;73.12
79203;BME280;68630;42.748;23.278;2024-03-08T06:40:10;95720.71;;;4.88;73.33
79203;BME280;68630;42.748;23.278;2024-03-08T06:42:41;95719.92;;;5.09;72.34
79203;BME280;68630;42.748;23.278;2024-03-08T06:45:15;95725.29;;;5.08;72.37
79203;BME280;68630;42.748;23.278;2024-03-08T06:47:43;95722.30;;;5.21;71.10
79203;BME280;68630;42.748;23.278;2024-03-08T06:52:47;95722.28;;;5.42;70.16
79203;BME280;68630;42.748;23.278;2024-03-08T06:55:30;95725.67;;;5.44;70.27
79203;BME280;68630;42.748;23.278;2024-03-08T06:58:02;95728.68;;;5.67;70.72
79203;BME280;68630;42.748;23.278;2024-03-08T07:00:28;95732.81;;;5.86;69.65
79203;BME280;68630;42.748;23.278;2024-03-08T07:03:12;95735.47;;;6.07;68.25
79203;BME280;68630;42.748;23.278;2024-03-08T07:05:45;95732.52;;;6.39;68.06
79203;BME280;68630;42.748;23.278;2024-03-08T07:08:16;95732.59;;;6.52;67.01
79203;BME280;68630;42.748;23.278;2024-03-08T07:10:51;95733.38;;;6.67;66.19
79203;BME280;68630;42.748;23.278;2024-03-08T07:13:28;95735.11;;;6.81;65.67
79203;BME280;68630;42.748;23.278;2024-03-08T07:19:02;95742.86;;;6.97;65.60
79203;BME280;68630;42.748;23.278;2024-03-08T07:30:13;95743.77;;;7.36;63.87
79203;BME280;68630;42.748;23.278;2024-03-08T07:33:00;95748.47;;;7.38;63.22
79203;BME280;68630;42.748;23.278;2024-03-08T07:35:24;95670.30;;;7.06;62.83
79203;BME280;68630;42.748;23.278;2024-03-08T07:38:13;95748.05;;;7.18;62.40
79203;BME280;68630;42.748;23.278;2024-03-08T07:40:39;95750.89;;;7.15;62.40
79203;BME280;68630;42.748;23.278;2024-03-08T07:43:13;95752.22;;;7.28;62.44
79203;BME280;68630;42.748;23.278;2024-03-08T07:45:58;95744.88;;;7.64;61.67
79203;BME280;68630;42.748;23.278;2024-03-08T07:56:25;95752.97;;;7.81;61.58
79203;BME280;68630;42.748;23.278;2024-03-08T07:59:19;95745.97;;;8.17;59.83
79203;BME280;68630;42.748;23.278;2024-03-08T08:01:52;95753.48;;;8.36;58.93
79203;BME280;68630;42.748;23.278;2024-03-08T08:07:58;95744.33;;;8.83;58.58
79203;BME280;68630;42.748;23.278;2024-03-08T08:10:28;95750.08;;;8.77;58.17
79203;BME280;68630;42.748;23.278;2024-03-08T08:13:14;95736.16;;;8.97;58.48
79203;BME280;68630;42.748;23.278;2024-03-08T08:18:35;95741.80;;;8.87;57.15
79203;BME280;68630;42.748;23.278;2024-03-08T08:21:41;95750.80;;;8.73;57.01
79203;BME280;68630;42.748;23.278;2024-03-08T08:24:33;95747.29;;;9.03;54.69
79203;BME280;68630;42.748;23.278;2024-03-08T08:32:55;95750.31;;;8.31;57.25
79203;BME280;68630;42.748;23.278;2024-03-08T08:35:40;95746.98;;;8.40;56.24
79203;BME280;68630;42.748;23.278;2024-03-08T08:41:19;95747.58;;;10.37;52.10
79203;BME280;68630;42.748;23.278;2024-03-08T08:43:53;95740.11;;;12.01;48.08
79203;BME280;68630;42.748;23.278;2024-03-08T09:00:07;95727.27;;;14.29;42.58
79203;BME280;68630;42.748;23.278;2024-03-08T09:02:39;95730.78;;;13.25;45.39
79203;BME280;68630;42.748;23.278;2024-03-08T09:05:23;95733.80;;;11.80;46.82
79203;BME280;68630;42.748;23.278;2024-03-08T09:07:56;95732.83;;;11.81;47.20
79203;BME280;68630;42.748;23.278;2024-03-08T09:10:24;95731.88;;;12.39;45.83
79203;BME280;68630;42.748;23.278;2024-03-08T09:13:05;95727.60;;;13.25;44.48
79203;BME280;68630;42.748;23.278;2024-03-08T09:15:46;95725.03;;;13.73;42.23
79203;BME280;68630;42.748;23.278;2024-03-08T09:21:06;95715.59;;;13.68;42.44
79203;BME280;68630;42.748;23.278;2024-03-08T09:23:39;95716.71;;;13.90;42.30
79203;BME280;68630;42.748;23.278;2024-03-08T09:26:15;95720.69;;;13.85;42.91
79203;BME280;68630;42.748;23.278;2024-03-08T09:29:11;95725.42;;;13.05;44.44
79203;BME280;68630;42.748;23.278;2024-03-08T09:34:31;95725.17;;;12.44;45.50
79203;BME280;68630;42.748;23.278;2024-03-08T09:42:23;95732.28;;;13.66;42.62
79203;BME280;68630;42.748;23.278;2024-03-08T09:44:58;95722.28;;;13.92;41.35
79203;BME280;68630;42.748;23.278;2024-03-08T09:47:29;95722.67;;;14.63;40.56
79203;BME280;68630;42.748;23.278;2024-03-08T09:50:06;95728.44;;;13.26;43.00
79203;BME280;68630;42.748;23.278;2024-03-08T09:55:10;95731.77;;;13.77;40.78
79203;BME280;68630;42.748;23.278;2024-03-08T09:57:41;95730.30;;;14.71;38.50
79203;BME280;68630;42.748;23.278;2024-03-08T10:03:04;95723.10;;;15.22;38.18
79203;BME280;68630;42.748;23.278;2024-03-08T10:08:13;95732.02;;;14.58;39.53
79203;BME280;68630;42.748;23.278;2024-03-08T10:10:54;95723.12;;;13.93;40.46
79203;BME280;68630;42.748;23.278;2024-03-08T10:13:19;95727.81;;;14.32;40.23
79203;BME280;68630;42.748;23.278;2024-03-08T10:15:50;95727.08;;;14.40;41.00
79203;BME280;68630;42.748;23.278;2024-03-08T10:18:22;95716.58;;;14.70;38.72
79203;BME280;68630;42.748;23.278;2024-03-08T10:21:10;95719.55;;;14.39;39.45
79203;BME280;68630;42.748;23.278;2024-03-08T10:23:42;95718.80;;;13.82;40.61
79203;BME280;68630;42.748;23.278;2024-03-08T10:26:15;95718.29;;;14.20;39.68
79203;BME280;68630;42.748;23.278;2024-03-08T10:28:50;95712.80;;;15.75;37.67
79203;BME280;68630;42.748;23.278;2024-03-08T10:31:22;95715.48;;;15.57;37.93
79203;BME280;68630;42.748;23.278;2024-03-08T10:36:35;95711.27;;;15.10;38.98
79203;BME280;68630;42.748;23.278;2024-03-08T10:47:39;95699.60;;;13.49;41.37
79203;BME280;68630;42.748;23.278;2024-03-08T10:50:24;95705.42;;;13.48;41.81
79203;BME280;68630;42.748;23.278;2024-03-08T10:52:53;95694.83;;;13.04;41.67
79203;BME280;68630;42.748;23.278;2024-03-08T10:55:49;95706.23;;;12.86;41.64
79203;BME280;68630;42.748;23.278;2024-03-08T10:58:37;95699.34;;;13.03;41.96
79203;BME280;68630;42.748;23.278;2024-03-08T11:01:21;95701.73;;;12.07;43.52
79203;BME280;68630;42.748;23.278;2024-03-08T11:04:11;95700.92;;;12.01;43.40
79203;BME280;68630;42.748;23.278;2024-03-08T11:10:18;95689.20;;;12.58;43.99
79203;BME280;68630;42.748;23.278;2024-03-08T11:37:22;95659.31;;;10.85;47.17
79203;BME280;68630;42.748;23.278;2024-03-08T11:40:28;95657.75;;;10.50;48.10
79203;BME280;68630;42.748;23.278;2024-03-08T11:45:55;95656.48;;;10.39;48.58
79203;BME280;68630;42.748;23.278;2024-03-08T11:51:03;95655.36;;;10.41;48.79
79203;BME280;68630;42.748;23.278;2024-03-08T11:53:35;95664.00;;;10.60;48.13
79203;BME280;68630;42.748;23.278;2024-03-08T11:56:21;95648.53;;;10.86;47.68
79203;BME280;68630;42.748;23.278;2024-03-08T11:58:58;95654.98;;;11.36;46.46
79203;BME280;68630;42.748;23.278;2024-03-08T12:01:58;95647.23;;;11.38;46.30
79203;BME280;68630;42.748;23.278;2024-03-08T12:04:17;95654.05;;;11.16;46.09
79203;BME280;68630;42.748;23.278;2024-03-08T12:10:17;95639.55;;;10.34;50.28
79203;BME280;68630;42.748;23.278;2024-03-08T12:12:52;95649.16;;;10.03;49.67
79203;BME280;68630;42.748;23.278;2024-03-08T12:15:22;95646.91;;;9.75;51.46
79203;BME280;68630;42.748;23.278;2024-03-08T12:18:12;95644.59;;;9.88;50.59
79203;BME280;68630;42.748;23.278;2024-03-08T12:20:43;95648.71;;;9.81;50.38
79203;BME280;68630;42.748;23.278;2024-03-08T12:23:21;95647.05;;;9.51;52.59
79203;BME280;68630;42.748;23.278;2024-03-08T12:25:53;95645.09;;;9.36;53.32
79203;BME280;68630;42.748;23.278;2024-03-08T12:32:06;95645.28;;;8.99;53.44
79203;BME280;68630;42.748;23.278;2024-03-08T12:34:37;95646.52;;;9.12;53.32
79203;BME280;68630;42.748;23.278;2024-03-08T12:37:11;95639.97;;;8.94;53.49
79203;BME280;68630;42.748;23.278;2024-03-08T12:39:41;95632.27;;;9.08;54.37
79203;BME280;68630;42.748;23.278;2024-03-08T12:42:20;95632.08;;;8.75;54.31
79203;BME280;68630;42.748;23.278;2024-03-08T12:44:50;95634.27;;;8.81;56.04
79203;BME280;68630;42.748;23.278;2024-03-08T12:54:18;95622.27;;;9.45;53.76
79203;BME280;68630;42.748;23.278;2024-03-08T12:56:49;95624.20;;;9.43;52.83
79203;BME280;68630;42.748;23.278;2024-03-08T12:59:20;95619.48;;;9.30;53.27
79203;BME280;68630;42.748;23.278;2024-03-08T13:01:48;95640.98;;;9.21;54.21
79203;BME280;68630;42.748;23.278;2024-03-08T13:04:31;95626.69;;;8.99;52.97
79203;BME280;68630;42.748;23.278;2024-03-08T13:07:00;95618.58;;;8.78;53.48
79203;BME280;68630;42.748;23.278;2024-03-08T13:12:51;95627.41;;;8.96;53.38
79203;BME280;68630;42.748;23.278;2024-03-08T13:15:28;95624.61;;;8.80;52.98
79203;BME280;68630;42.748;23.278;2024-03-08T13:18:04;95622.22;;;8.94;54.18
79203;BME280;68630;42.748;23.278;2024-03-08T13:20:29;95624.38;;;8.89;53.56
79203;BME280;68630;42.748;23.278;2024-03-08T13:26:29;95624.64;;;8.97;52.63
79203;BME280;68630;42.748;23.278;2024-03-08T13:29:07;95617.63;;;8.91;53.12
79203;BME280;68630;42.748;23.278;2024-03-08T13:31:48;95621.38;;;8.94;53.24
79203;BME280;68630;42.748;23.278;2024-03-08T13:34:12;95621.51;;;8.51;54.48
79203;BME280;68630;42.748;23.278;2024-03-08T13:36:45;95618.19;;;8.72;53.94
79203;BME280;68630;42.748;23.278;2024-03-08T13:39:22;95610.44;;;8.52;54.27
79203;BME280;68630;42.748;23.278;2024-03-08T13:45:12;95619.56;;;8.23;54.96
79203;BME280;68630;42.748;23.278;2024-03-08T13:47:41;95616.39;;;8.13;55.93
79203;BME280;68630;42.748;23.278;2024-03-08T13:50:26;95607.52;;;7.95;55.38
79203;BME280;68630;42.748;23.278;2024-03-08T13:52:58;95606.38;;;8.11;55.60
79203;BME280;68630;42.748;23.278;2024-03-08T13:55:27;95608.64;;;8.04;54.45
79203;BME280;68630;42.748;23.278;2024-03-08T13:58:04;95610.42;;;8.03;55.80
79203;BME280;68630;42.748;23.278;2024-03-08T14:00:29;95603.84;;;7.85;56.20
79203;BME280;68630;42.748;23.278;2024-03-08T14:03:04;95609.66;;;7.90;56.43
79203;BME280;68630;42.748;23.278;2024-03-08T14:05:31;95606.24;;;7.88;55.67
79203;BME280;68630;42.748;23.278;2024-03-08T14:08:05;95611.12;;;7.76;56.61
79203;BME280;68630;42.748;23.278;2024-03-08T14:10:38;95616.12;;;7.67;57.00
79203;BME280;68630;42.748;23.278;2024-03-08T14:13:10;95616.73;;;7.90;56.67
79203;BME280;68630;42.748;23.278;2024-03-08T14:15:40;95616.39;;;7.88;56.55
79203;BME280;68630;42.748;23.278;2024-03-08T14:18:11;95611.13;;;8.00;56.27
79203;BME280;68630;42.748;23.278;2024-03-08T14:20:41;95613.05;;;7.98;55.80
79203;BME280;68630;42.748;23.278;2024-03-08T14:23:10;95612.96;;;8.05;55.17
79203;BME280;68630;42.748;23.278;2024-03-08T14:25:43;95621.09;;;8.15;55.97
79203;BME280;68630;42.748;23.278;2024-03-08T14:28:17;95622.35;;;8.03;56.79
79203;BME280;68630;42.748;23.278;2024-03-08T14:30:46;95621.60;;;8.20;56.76
79203;BME280;68630;42.748;23.278;2024-03-08T14:33:24;95623.66;;;7.79;57.15
79203;BME280;68630;42.748;23.278;2024-03-08T14:35:46;95626.13;;;7.88;56.95
79203;BME280;68630;42.748;23.278;2024-03-08T14:38:16;95621.53;;;8.09;56.27
79203;BME280;68630;42.748;23.278;2024-03-08T14:40:47;95552.39;;;7.63;56.22
79203;BME280;68630;42.748;23.278;2024-03-08T14:47:11;95625.91;;;7.91;57.38
79203;BME280;68630;42.748;23.278;2024-03-08T14:49:41;95628.72;;;7.58;57.21
79203;BME280;68630;42.748;23.278;2024-03-08T14:52:12;95621.49;;;7.60;58.54
79203;BME280;68630;42.748;23.278;2024-03-08T14:54:57;95622.69;;;7.56;58.29
79203;BME280;68630;42.748;23.278;2024-03-08T14:57:25;95623.20;;;7.61;58.30
79203;BME280;68630;42.748;23.278;2024-03-08T14:59:57;95626.14;;;7.51;57.72
79203;BME280;68630;42.748;23.278;2024-03-08T15:02:28;95627.44;;;7.45;59.04
79203;BME280;68630;42.748;23.278;2024-03-08T15:05:00;95635.31;;;7.40;58.95
79203;BME280;68630;42.748;23.278;2024-03-08T15:07:29;95628.34;;;7.39;59.56
79203;BME280;68630;42.748;23.278;2024-03-08T15:09:58;95634.27;;;7.29;59.11
79203;BME280;68630;42.748;23.278;2024-03-08T15:12:29;95631.16;;;7.17;60.50
79203;BME280;68630;42.748;23.278;2024-03-08T15:14:57;95626.77;;;7.10;60.74
79203;BME280;68630;42.748;23.278;2024-03-08T15:17:24;95634.65;;;6.92;60.46
79203;BME280;68630;42.748;23.278;2024-03-08T15:19:52;95631.42;;;6.81;60.64
79203;BME280;68630;42.748;23.278;2024-03-08T15:22:20;95628.98;;;6.78;62.00
79203;BME280;68630;42.748;23.278;2024-03-08T15:24:47;95632.31;;;6.74;62.84
79203;BME280;68630;42.748;23.278;2024-03-08T15:27:15;95628.88;;;6.67;62.59
79203;BME280;68630;42.748;23.278;2024-03-08T15:29:42;95635.52;;;6.60;62.61
79203;BME280;68630;42.748;23.278;2024-03-08T15:32:11;95636.48;;;6.59;62.29
79203;BME280;68630;42.748;23.278;2024-03-08T15:34:43;95637.37;;;6.52;62.88
79203;BME280;68630;42.748;23.278;2024-03-08T15:37:12;95637.47;;;6.50;63.29
79203;BME280;68630;42.748;23.278;2024-03-08T15:39:41;95641.05;;;6.49;63.29
79203;BME280;68630;42.748;23.278;2024-03-08T15:42:09;95640.94;;;6.38;64.25
79203;BME280;68630;42.748;23.278;2024-03-08T15:44:44;95652.20;;;6.34;63.37
79203;BME280;68630;42.748;23.278;2024-03-08T15:47:19;95650.72;;;6.23;64.31
79203;BME280;68630;42.748;23.278;2024-03-08T15:49:43;95637.33;;;6.39;63.04
79203;BME280;68630;42.748;23.278;2024-03-08T15:52:13;95645.44;;;6.23;63.39
79203;BME280;68630;42.748;23.278;2024-03-08T16:01:28;95648.52;;;5.61;65.25
79203;BME280;68630;42.748;23.278;2024-03-08T16:04:00;95653.33;;;5.61;65.22
79203;BME280;68630;42.748;23.278;2024-03-08T16:06:44;95659.66;;;5.44;66.17
79203;BME280;68630;42.748;23.278;2024-03-08T16:09:14;95591.55;;;5.01;67.02
79203;BME280;68630;42.748;23.278;2024-03-08T16:11:49;95664.30;;;5.34;67.52
79203;BME280;68630;42.748;23.278;2024-03-08T16:14:19;95663.07;;;5.32;67.59
79203;BME280;68630;42.748;23.278;2024-03-08T16:16:50;95662.51;;;5.49;66.91
79203;BME280;68630;42.748;23.278;2024-03-08T16:19:30;95669.97;;;5.35;66.60
79203;BME280;68630;42.748;23.278;2024-03-08T16:22:05;95667.22;;;5.29;66.75